Lake Arrowhead, CA

9:00 PM PDT on September 19, 2014 (GMT -0700)
TOWERING PINES | Change Station
CLOSE
Current Station
Personal Weather Station
Location: Lake Arrowhead, CA
Elevation: 5141 ft
Nearby Weather Stations

Elev 5141 ft 34.27 °N, 117.18 °W | Updated 13 minutes ago

Clear
Clear
62.1 °F
Feels Like 62.1 °F
N
0.0
Wind Variable Wind from NNW

Today
High -- | Low -- °F
--% Chance of Precip.
Yesterday
High -- | Low -- °F
Precip. -- in
6:34 AM 6:49 PM
Waning Crescent, 15% visible
Pressure 30.16 in
Visibility 10.0 miles
Clouds Clear
Dew Point 51 °F
Humidity 68%
Rainfall 0.00 in
Snow Depth 0 in , 0 in , 0 in
UV 0 out of 12
Pollen 6.90 out of 12
Ozone Good
PM2.5 Good
Flu Activity Not available.
METAR KL35 200335Z AUTO 00000KT 10SM CLR 12/03 A3016 RMK AO2

More Conditions Fewer Conditions

Pressure 30.16 in
Visibility 10.0 miles
Clouds Clear
Dew Point 51 °F
Humidity 68%
Rainfall 0.00 in
Snow Depth 0 in , 0 in , 0 in
UV 0 out of 12
Pollen 6.90 out of 12
Ozone Good
PM2.5 Good
Flu Activity Not available.
METAR KL35 200335Z AUTO 00000KT 10SM CLR 12/03 A3016 RMK AO2

More Conditions Fewer Conditions

10-Day Weather Forecast

Almanac

Astronomy

Sep. 19, 2014 Rise Set
Actual Time 6:34 AM PDT 6:49 PM PDT
Civil Twilight 6:09 AM PDT 7:14 PM PDT
Nautical Twilight 5:40 AM PDT 7:43 PM PDT
Astronomical Twilight 5:10 AM PDT 8:13 PM PDT
Moon 2:32 AM PDT (9/19) 4:13 PM PDT (9/19)
Length of Visible Light 13h 04m
Length of Day
12h 14m
Tomorrow will be 2m 6s shorter.
Waning Crescent, 15% of the Moon is Illuminated
Sep 20
Waning Crescent
Sep 24
New
Oct 1
First Quarter
Oct 8
Full
Oct 15
Last Quarter

Today's Extremes

State Highs State Lows

Community

WunderPhotos

Upload Photos

1,754,777 photos uploaded!

WunderBlogs® & News

Nearby

Air Quality

  Air Quality AQ Index Pollutant
Yesterday Good
OZONE
Yesterday Good
PM2.5
Current Good
OZONE
Current Good
PM2.5
Saturday Good
OZONE
Saturday Good
PM10
Saturday Good
CO
Saturday Good
NO2

Snow Depth

Station Depth Elevation
Adin Mountain 0 in 6200 ft
Leavitt Lake 0 in 9400 ft
CSS Lab 0 in 6900 ft
Blue Lakes 0 in 8000 ft
Leavitt Meadows 0 in 7200 ft

Earthquake Activity

City Distance Mag. Time & Date
Inyokern, California 128 miles 3.1 5:33 PM PDT
2014-09-19
Aguanga, California 59 miles 2.5 1:38 AM PDT
2014-09-19
Minimum magnitude displayed is 2.5.

Coastal Water Temperatures

Place Temperature
No Stations Reporting

Nearby Weather Stations